Yaupon Beach, North Carolina
Current Conditions -  °F | °C
As of 10:15 AM on Sunday 21 Dec 2014 (Local Time) from KSUT Reporting Station
Broken Clouds Broken Clouds  
Wind Chill:   Ceiling: 7000
Heat Index:   Visibility: 10mi
Dew Point:   Wind: 10mph
Humidity: 76%   Direction: 30°NNE
Pressure: 30.27"   Gusts: 18mph
Location:  33.9216°N, 78.1244°W
Report Text: KSUT 211515Z AUTO 03009G16KT 10SM SCT034 BKN070 BKN100 06/02 A3027 RMK AO2 T00580019
Loading
Personal Weather Stations






























Interactive Weather Map New forecast layout! Learn more

10-Day Weather Forecast

Advertisements
Track Severe Weather on mobile